Flight Track Log - Related Links

Times and Time Zones

All times are in EST time to prevent confusion due to time zone crossing. See the UCA3597 flight status page for this flight to view local times or setup timezone preferences in your user account.

Time Position Orientation Groundspeed Altitude Reporting Facility
EST Latitude Longitude Course Direction KTS MPH feet Rate Location/Type
Fri 07:34:59 PM 42.2122 -76.0428 204° Southwest 170 196 4,400  Level New York Center
Fri 07:35:59 PM 42.1675 -76.0700 204° Southwest 180 207 6,200 1,767 Climbing New York Center
Fri 07:37:59 PM 42.0917 -76.1367 213° Southwest 173 199 9,700 1,633 Climbing New York Center
Fri 07:38:59 PM 42.0503 -76.1722 213° Southwest 173 199 11,100 1,600 Climbing New York Center
Fri 07:39:59 PM 42.0092 -76.2081 213° Southwest 183 211 12,900 2,150 Climbing New York Center
Fri 07:40:59 PM 41.9722 -76.2414 214° Southwest 161 185 15,400 1,500 Climbing New York Center
Fri 07:41:59 PM 41.9378 -76.2664 208° Southwest 140 161 15,900 250 Climbing New York Center
Fri 07:42:59 PM 41.9028 -76.3025 218° Southwest 156 180 15,900  Level New York Center
Fri 07:43:59 PM 41.8639 -76.3325 210° Southwest 177 204 15,900  Level New York Center
Fri 07:44:59 PM 41.8206 -76.3678 211° Southwest 177 204 15,900 50 Level New York Center
Fri 07:45:59 PM 41.7794 -76.4033 213° Southwest 177 204 16,000 50 Climbing New York Center
Fri 07:46:59 PM 41.7336 -76.4439 213° Southwest 182 209 16,000  Level New York Center
Fri 07:47:59 PM 41.6947 -76.4742 210° Southwest 182 209 16,000  Level New York Center
Fri 07:48:59 PM 41.6536 -76.5094 213° Southwest 177 204 16,000  Level New York Center
Fri 07:49:59 PM 41.6103 -76.5444 211° Southwest 177 204 16,000  Level New York Center
Fri 07:50:59 PM 41.5689 -76.5797 213° Southwest 177 204 16,000  Level New York Center
Fri 07:51:59 PM 41.5253 -76.6175 213° Southwest 177 204 16,000  Level New York Center
Fri 07:52:59 PM 41.4883 -76.6475 211° Southwest 177 204 16,000  Level New York Center
Fri 07:53:59 PM 41.4494 -76.6803 212° Southwest 177 204 16,000  Level New York Center
Fri 07:54:59 PM 41.4078 -76.7181 214° Southwest 177 204 16,000  Level New York Center
Fri 07:55:59 PM 41.3686 -76.7533 214° Southwest 177 204 16,000  Level New York Center
Fri 07:56:59 PM 41.3256 -76.7825 207° Southwest 177 204 16,000  Level New York Center
Fri 07:57:59 PM 41.2625 -76.7908 186° South 182 209 16,000  Level New York Center
Fri 07:58:59 PM 41.2078 -76.8025 189° South 193 222 16,000  Level New York Center
Fri 07:59:59 PM 41.1531 -76.8142 189° South 199 229 16,000  Level New York Center
Fri 08:00:59 PM 41.0961 -76.8256 189° South 199 229 16,000  Level New York Center
Fri 08:01:59 PM 41.0414 -76.8372 189° South 199 229 16,000  Level New York Center
Fri 08:02:59 PM 40.9847 -76.8458 187° South 204 235 16,000  Level New York Center
Fri 08:03:59 PM 40.9297 -76.8603 191° South 204 235 16,000  Level New York Center
Fri 08:04:59 PM 40.8772 -76.8667 185° South 204 235 16,000  Level New York Center
Fri 08:05:59 PM 40.8139 -76.8828 191° South 210 242 16,000  Level New York Center
Fri 08:06:59 PM 40.7614 -76.8947 190° South 215 247 16,000  Level New York Center
Fri 08:07:59 PM 40.7039 -76.9142 194° South 210 242 16,000  Level New York Center
Fri 08:08:59 PM 40.6553 -76.9289 193° South 204 235 16,000  Level New York Center
Fri 08:09:59 PM 40.5981 -76.9456 192° South 204 235 16,000  Level New York Center
Fri 08:10:59 PM 40.5494 -76.9603 193° South 204 235 16,000  Level New York Center
Fri 08:11:59 PM 40.4900 -76.9797 194° South 204 235 16,000 -190 Level New York Center
Fri 08:13:37 PM 40.4000 -77.0000 190° South 191 220 15,500 -456 Descending Potomac TRACON
Fri 08:14:37 PM 40.3500 -77.0167 194° South 194 223 14,800 -650 Descending Potomac TRACON
Fri 08:15:37 PM 40.3000 -77.0333 194° South 202 232 14,200 -600 Descending Potomac TRACON
Fri 08:16:37 PM 40.2500 -77.0500 194° South 202 232 13,600 -550 Descending Potomac TRACON
Fri 08:17:37 PM 40.2000 -77.0667 194° South 200 230 13,100 -550 Descending Potomac TRACON
Fri 08:18:37 PM 40.1500 -77.0833 194° South 202 232 12,500 -600 Descending Potomac TRACON
Fri 08:19:37 PM 40.1000 -77.1000 194° South 199 229 11,900 -600 Descending Potomac TRACON
Fri 08:20:37 PM 40.0333 -77.1167 191° South 202 232 11,300 -600 Descending Potomac TRACON
Fri 08:21:37 PM 39.9833 -77.1333 194° South 209 241 10,700 -600 Descending Potomac TRACON
Fri 08:22:37 PM 39.9333 -77.1667 207° Southwest 205 236 10,100 -595 Descending Potomac TRACON
Fri 08:23:38 PM 39.8667 -77.2000 201° Southwest 208 239 9,500 -595 Descending Potomac TRACON
Fri 08:24:38 PM 39.8167 -77.2167 194° South 224 258 8,900 -600 Descending Potomac TRACON
Fri 08:25:38 PM 39.7500 -77.2333 191° South 238 274 8,300 -600 Descending Potomac TRACON
Fri 08:26:38 PM 39.6833 -77.2500 191° South 240 276 7,700 -600 Descending Potomac TRACON
Fri 08:27:38 PM 39.6167 -77.2500 180° South 233 268 7,100 -600 Descending Potomac TRACON
Fri 08:28:38 PM 39.5500 -77.2667 191° South 234 269 6,500 -650 Descending Potomac TRACON
Fri 08:29:38 PM 39.4833 -77.2833 191° South 229 264 5,800 -661 Descending Potomac TRACON
Fri 08:30:45 PM 39.4167 -77.3000 191° South 231 266 5,100 -614 Descending Potomac TRACON
Fri 08:31:45 PM 39.3500 -77.3167 191° South 248 285 4,500 -550 Descending Potomac TRACON
Fri 08:32:45 PM 39.2833 -77.3333 191° South 249 287 4,000 -238 Descending Potomac TRACON
Fri 08:33:51 PM 39.2167 -77.3500 191° South 244 281 4,000 -48 Level Potomac TRACON
Fri 08:34:51 PM 39.1500 -77.3667 191° South 245 282 3,900 -50 Descending Potomac TRACON
Fri 08:35:51 PM 39.0667 -77.3500 171° South 245 282 3,900  Level Potomac TRACON
Fri 08:36:51 PM 39.0000 -77.3500 180° South 247 284 3,900  Level Potomac TRACON
Fri 08:37:51 PM 38.9333 -77.3500 180° South 248 285 3,900  Level Potomac TRACON
Fri 08:38:52 PM 38.8667 -77.3500 180° South 245 282 3,900 -149 Level Potomac TRACON
Fri 08:39:52 PM 38.8000 -77.3667 191° South 235 270 3,600 -579 Descending Potomac TRACON
Fri 08:40:46 PM 38.7333 -77.3667 180° South 232 267 2,800 -842 Descending Potomac TRACON
Fri 08:41:46 PM 38.7000 -77.4167 230° Southwest 250 288 2,000 -446 Descending Potomac TRACON
Fri 08:42:47 PM 38.7500 -77.4333 345° North 169 194 1,900 -50 Descending Potomac TRACON
Fri 08:43:47 PM 38.8000 -77.4333 360° North 166 191 1,900  Level Potomac TRACON
Fri 08:44:47 PM 38.8500 -77.4333 360° North 160 184 1,900 -347 Level Potomac TRACON
Fri 08:45:48 PM 38.8833 -77.4333 360° North 118 136 1,200 -645 Descending Potomac TRACON
Fri 08:46:48 PM 38.9167 -77.4333 360° North 105 121 600 -600 Descending Potomac TRACON

Login

Don't have an account? Register now (free) for customized features, flight alerts, and more!